createdAt,value
2022-09-04T00:05:08.298Z,101757.38
2022-09-04T00:10:36.830Z,101754.88
2022-09-04T00:15:44.908Z,101756.13
2022-09-04T00:20:59.274Z,101765.25
2022-09-04T00:26:42.297Z,101755.69
2022-09-04T00:32:12.072Z,101765.25
2022-09-04T00:37:16.681Z,101765.47
2022-09-04T00:42:38.515Z,101778.75
2022-09-04T00:48:06.406Z,101779.16
2022-09-04T00:53:16.427Z,101786.00
2022-09-04T00:58:55.424Z,101785.38
2022-09-04T01:04:08.733Z,101790.94
2022-09-04T01:09:37.964Z,101795.72
2022-09-04T01:14:48.692Z,101804.00
2022-09-04T01:20:16.837Z,101813.53
2022-09-04T01:25:47.853Z,101813.91
2022-09-04T01:31:04.564Z,101815.13
2022-09-04T01:36:20.581Z,101824.03
2022-09-04T01:41:44.562Z,101819.41
2022-09-04T01:47:04.162Z,101819.63
2022-09-04T01:52:09.991Z,101828.72
2022-09-04T01:57:32.450Z,101822.03
2022-09-04T02:03:03.014Z,101821.63
2022-09-04T02:08:13.872Z,101824.91
2022-09-04T02:13:23.900Z,101829.03
2022-09-04T02:18:36.139Z,101826.72
2022-09-04T02:24:16.992Z,101830.47
2022-09-04T02:29:26.831Z,101832.28
2022-09-04T02:34:40.549Z,101833.72
2022-09-04T02:39:48.338Z,101830.75
2022-09-04T02:44:57.398Z,101824.91
2022-09-04T02:50:22.677Z,101834.44
2022-09-04T02:55:35.277Z,101838.38
2022-09-04T03:00:54.305Z,101828.13
2022-09-04T03:06:03.892Z,101827.88
2022-09-04T03:11:17.451Z,101830.16
2022-09-04T03:16:28.428Z,101833.59
2022-09-04T03:21:46.125Z,101832.66
2022-09-04T03:27:02.177Z,101833.06
2022-09-04T03:32:44.614Z,101833.47
2022-09-04T03:38:08.214Z,101844.81
2022-09-04T03:43:22.941Z,101849.13
2022-09-04T03:48:47.230Z,101864.22
2022-09-04T03:53:57.929Z,101870.19
2022-09-04T03:59:06.676Z,101868.06
2022-09-04T04:04:46.324Z,101874.84
2022-09-04T04:10:22.314Z,101881.22
2022-09-04T04:15:42.546Z,101884.84
2022-09-04T04:21:10.894Z,101888.56
2022-09-04T04:26:15.742Z,101894.72
2022-09-04T04:32:07.014Z,101894.25
2022-09-04T04:37:21.336Z,101901.03
2022-09-04T04:42:35.730Z,101896.41
2022-09-04T04:48:17.117Z,101899.09
2022-09-04T04:53:35.970Z,101913.41
2022-09-04T04:59:03.883Z,101909.03
2022-09-04T05:04:36.564Z,101910.06
2022-09-04T05:09:44.045Z,101911.53
2022-09-04T05:14:54.616Z,101912.38
2022-09-04T05:20:14.978Z,101922.31
2022-09-04T05:25:21.780Z,101932.53
2022-09-04T05:30:31.808Z,101946.66
2022-09-04T05:35:48.855Z,101955.59
2022-09-04T05:41:37.030Z,101960.41
2022-09-04T05:47:01.867Z,101954.28
2022-09-04T05:52:41.885Z,101968.25
2022-09-04T05:58:02.719Z,101970.13
2022-09-04T06:03:42.029Z,101972.91
2022-09-04T06:09:09.537Z,101982.72
2022-09-04T06:14:25.272Z,101980.97
2022-09-04T06:19:57.913Z,101983.63
2022-09-04T06:25:14.474Z,101993.09
2022-09-04T06:30:17.878Z,102002.03
2022-09-04T06:35:40.726Z,101997.44
2022-09-04T06:40:56.497Z,102002.78
2022-09-04T06:46:10.359Z,102007.50
2022-09-04T06:51:46.028Z,102010.31
2022-09-04T06:57:14.256Z,102011.84
2022-09-04T07:02:46.989Z,102020.28
2022-09-04T07:07:59.909Z,102013.38
2022-09-04T07:13:23.511Z,102022.19
2022-09-04T07:18:48.427Z,102026.88
2022-09-04T07:24:31.168Z,102043.78
2022-09-04T07:29:40.037Z,102026.63
2022-09-04T07:35:27.065Z,102037.41
2022-09-04T07:40:38.260Z,102048.28
2022-09-04T07:45:51.521Z,102045.84
2022-09-04T07:51:10.778Z,102046.97
2022-09-04T07:56:28.864Z,102044.09
2022-09-04T08:01:40.220Z,102049.78
2022-09-04T08:06:50.283Z,102057.19
2022-09-04T08:12:15.058Z,102067.84
2022-09-04T08:17:43.181Z,102064.09
2022-09-04T08:22:57.044Z,102074.56
2022-09-04T08:28:21.529Z,102059.38
2022-09-04T08:33:54.081Z,102070.25
2022-09-04T08:39:07.478Z,102068.78
2022-09-04T08:44:30.635Z,102085.91
2022-09-04T08:50:01.866Z,102083.38
2022-09-04T08:55:31.508Z,102074.78
2022-09-04T09:00:42.945Z,102091.03
2022-09-04T09:06:06.782Z,102104.16
2022-09-04T09:11:48.003Z,102100.53
2022-09-04T09:17:17.052Z,102098.75
2022-09-04T09:22:47.543Z,102106.41
2022-09-04T09:28:40.151Z,102088.78
2022-09-04T09:34:25.159Z,102100.56
2022-09-04T09:39:41.386Z,102092.41
2022-09-04T09:45:06.319Z,102092.63
2022-09-04T09:50:39.095Z,102087.06
2022-09-04T09:56:03.389Z,102081.19
2022-09-04T10:01:21.191Z,102083.31
2022-09-04T10:07:10.391Z,102084.25
2022-09-04T10:12:28.163Z,102093.69
2022-09-04T10:17:53.156Z,102090.56
2022-09-04T10:23:19.017Z,102091.72
2022-09-04T10:29:11.241Z,102086.31
2022-09-04T10:34:15.920Z,102078.50
2022-09-04T10:39:48.701Z,102076.63
2022-09-04T10:45:20.589Z,102071.06
2022-09-04T10:50:35.433Z,102075.72
2022-09-04T10:56:16.422Z,102074.63
2022-09-04T11:01:45.333Z,102071.16
2022-09-04T11:07:05.435Z,102062.31
2022-09-04T11:12:25.076Z,102058.09
2022-09-04T11:17:38.600Z,102057.13
2022-09-04T11:23:01.907Z,102062.97
2022-09-04T11:28:05.705Z,102080.28
2022-09-04T11:33:52.670Z,102064.44
2022-09-04T11:39:05.985Z,102068.47
2022-09-04T11:44:24.997Z,102066.56
2022-09-04T11:49:56.608Z,102063.78
2022-09-04T11:55:23.422Z,102065.22
2022-09-04T12:00:28.080Z,102058.84
2022-09-04T12:05:39.695Z,102063.63
2022-09-04T12:11:38.281Z,102069.50
2022-09-04T12:17:15.562Z,102061.25
2022-09-04T12:22:31.296Z,102063.09
2022-09-04T12:28:00.655Z,102066.31
2022-09-04T12:33:14.479Z,102066.81
2022-09-04T12:39:01.421Z,102045.78
2022-09-04T12:44:25.538Z,102059.25
2022-09-04T12:49:52.109Z,102054.22
2022-09-04T12:55:19.440Z,102058.16
2022-09-04T13:00:36.937Z,102060.97
2022-09-04T13:06:15.362Z,102066.47
2022-09-04T13:11:43.803Z,102067.84
2022-09-04T13:16:52.113Z,102070.34
2022-09-04T13:22:26.511Z,102072.25
2022-09-04T13:27:48.224Z,102073.88
2022-09-04T13:32:49.879Z,102077.38
2022-09-04T13:37:54.658Z,102069.34
2022-09-04T13:43:21.084Z,102084.13
2022-09-04T13:48:22.819Z,102070.97
2022-09-04T13:53:29.225Z,102073.41
2022-09-04T13:58:39.486Z,102082.00
2022-09-04T14:03:56.280Z,102081.34
2022-09-04T14:09:05.154Z,102078.53
2022-09-04T14:14:35.175Z,102072.34
2022-09-04T14:19:46.266Z,102076.41
2022-09-04T14:25:16.085Z,102073.56
2022-09-04T14:30:27.204Z,102068.56
2022-09-04T14:36:10.124Z,102070.00
2022-09-04T14:41:31.402Z,102074.63
2022-09-04T14:47:03.345Z,102081.47
2022-09-04T14:52:19.661Z,102076.31
2022-09-04T14:57:38.668Z,102082.38
2022-09-04T15:02:55.024Z,102082.88
2022-09-04T15:08:07.498Z,102075.88
2022-09-04T15:13:27.259Z,102081.25
2022-09-04T15:18:42.086Z,102087.06
2022-09-04T15:24:17.810Z,102082.59
2022-09-04T15:29:27.886Z,102072.72
2022-09-04T15:34:32.269Z,102073.53
2022-09-04T15:39:40.202Z,102082.19
2022-09-04T15:44:46.584Z,102077.09
2022-09-04T15:50:01.205Z,102083.13
2022-09-04T15:55:22.902Z,102079.38
2022-09-04T16:00:27.318Z,102088.16
2022-09-04T16:05:41.904Z,102074.03
2022-09-04T16:11:12.355Z,102076.78
2022-09-04T16:16:19.195Z,102079.63
2022-09-04T16:21:47.660Z,102076.59
2022-09-04T16:26:55.881Z,102075.75
2022-09-04T16:32:03.890Z,102074.53
2022-09-04T16:37:21.139Z,102080.50
2022-09-04T16:42:38.082Z,102086.59
2022-09-04T16:47:56.667Z,102078.34
2022-09-04T16:53:19.059Z,102077.47
2022-09-04T16:58:35.292Z,102077.38
2022-09-04T17:04:13.799Z,102085.81
2022-09-04T17:09:34.875Z,102087.06
2022-09-04T17:14:40.909Z,102088.03
2022-09-04T17:19:43.686Z,102087.13
2022-09-04T17:29:13.156Z,102086.97
2022-09-04T17:30:44.158Z,102084.53
2022-09-04T17:40:36.393Z,102090.31
2022-09-04T17:41:53.029Z,102094.69
2022-09-04T17:47:04.589Z,102094.91
2022-09-04T17:52:08.847Z,102093.69
2022-09-04T17:57:46.870Z,102088.06
2022-09-04T18:02:50.004Z,102100.75
2022-09-04T18:08:07.472Z,102092.69
2022-09-04T18:13:38.675Z,102118.88
2022-09-04T18:18:47.283Z,102116.53
2022-09-04T18:23:54.780Z,102125.38
2022-09-04T18:31:42.958Z,102131.88
2022-09-04T18:37:22.079Z,102133.84
2022-09-04T18:40:28.049Z,102148.63
2022-09-04T18:50:30.451Z,102143.34
2022-09-04T18:51:22.203Z,102153.91
2022-09-04T18:56:36.854Z,102149.06
2022-09-04T19:01:43.378Z,102159.16
2022-09-04T19:07:14.892Z,102160.59
2022-09-04T19:12:21.530Z,102161.78
2022-09-04T19:17:31.899Z,102166.09
2022-09-04T19:22:47.061Z,102164.75
2022-09-04T19:28:17.245Z,102172.97
2022-09-04T19:33:39.513Z,102167.25
2022-09-04T19:45:53.809Z,102169.84
2022-09-04T19:46:06.218Z,102173.72
2022-09-04T19:53:20.165Z,102179.38
2022-09-04T19:55:24.821Z,102174.97
2022-09-04T20:00:42.411Z,102183.94
2022-09-04T20:05:57.855Z,102181.09
2022-09-04T20:11:28.645Z,102181.59
2022-09-04T20:17:13.521Z,102198.53
2022-09-04T20:22:35.429Z,102198.47
2022-09-04T20:27:49.161Z,102195.09
2022-09-04T20:33:02.040Z,102193.13
2022-09-04T20:38:22.903Z,102193.66
2022-09-04T20:43:46.353Z,102200.94
2022-09-04T20:52:58.244Z,102203.34
2022-09-04T20:54:33.529Z,102201.38
2022-09-04T21:03:09.328Z,102203.78
2022-09-04T21:05:46.222Z,102207.03
2022-09-04T21:10:56.533Z,102216.34
2022-09-04T21:16:27.228Z,102216.84
2022-09-04T21:22:08.235Z,102216.72
2022-09-04T21:27:54.693Z,102226.44
2022-09-04T21:33:24.600Z,102230.66
2022-09-04T21:38:56.969Z,102233.41
2022-09-04T21:44:34.962Z,102223.66
2022-09-04T21:50:00.370Z,102217.22
2022-09-04T21:57:20.778Z,102225.47
2022-09-04T22:02:42.252Z,102233.84
2022-09-04T22:08:34.583Z,102243.31
2022-09-04T22:13:46.655Z,102240.81
2022-09-04T22:18:23.265Z,102241.72
2022-09-04T22:23:58.598Z,102248.22
2022-09-04T22:29:41.913Z,102248.66
2022-09-04T22:35:03.774Z,102251.81
2022-09-04T22:40:20.485Z,102253.28
2022-09-04T22:45:36.056Z,102250.78
2022-09-04T22:51:05.394Z,102258.97
2022-09-04T22:56:22.995Z,102258.34
2022-09-04T23:02:35.226Z,102248.31
2022-09-04T23:11:30.392Z,102251.63
2022-09-04T23:14:05.249Z,102240.78
2022-09-04T23:26:31.497Z,102249.78
2022-09-04T23:26:49.409Z,102241.84
2022-09-04T23:31:29.098Z,102247.47
2022-09-04T23:36:33.827Z,102237.88
2022-09-04T23:41:52.957Z,102243.91
2022-09-04T23:47:48.612Z,102247.03
2022-09-04T23:53:12.191Z,102230.09
2022-09-04T23:58:57.552Z,102233.88
